createdAt,value
2022-12-31T00:01:16.375Z,8.37
2022-12-31T00:03:45.336Z,8.57
2022-12-31T00:06:20.390Z,8.57
2022-12-31T00:08:49.564Z,7.90
2022-12-31T00:11:18.511Z,8.53
2022-12-31T00:13:47.612Z,9.87
2022-12-31T00:16:20.807Z,9.63
2022-12-31T00:18:51.815Z,8.00
2022-12-31T00:21:21.305Z,8.53
2022-12-31T00:23:50.406Z,8.80
2022-12-31T00:26:22.073Z,8.67
2022-12-31T00:28:50.431Z,8.87
2022-12-31T00:31:23.875Z,8.13
2022-12-31T00:33:52.750Z,9.37
2022-12-31T00:36:23.901Z,9.30
2022-12-31T00:38:54.546Z,8.13
2022-12-31T00:41:24.206Z,8.50
2022-12-31T00:43:52.696Z,8.30
2022-12-31T00:46:23.092Z,8.27
2022-12-31T00:48:51.667Z,7.93
2022-12-31T00:51:23.790Z,7.50
2022-12-31T00:53:52.266Z,7.13
2022-12-31T00:56:22.733Z,7.43
2022-12-31T00:58:51.827Z,7.87
2022-12-31T01:01:24.167Z,8.23
2022-12-31T01:03:57.082Z,8.00
2022-12-31T01:06:25.854Z,8.00
2022-12-31T01:08:55.595Z,7.33
2022-12-31T01:11:28.969Z,7.50
2022-12-31T01:13:59.640Z,7.20
2022-12-31T01:16:32.403Z,7.70
2022-12-31T01:19:03.122Z,8.40
2022-12-31T01:21:31.797Z,8.50
2022-12-31T01:24:00.799Z,9.37
2022-12-31T01:26:29.626Z,8.13
2022-12-31T01:28:58.247Z,8.07
2022-12-31T01:31:28.228Z,8.27
2022-12-31T01:33:56.955Z,7.80
2022-12-31T01:36:27.547Z,7.27
2022-12-31T01:38:56.888Z,7.57
2022-12-31T01:41:28.027Z,7.83
2022-12-31T01:43:58.779Z,7.30
2022-12-31T01:46:41.676Z,7.60
2022-12-31T01:49:19.582Z,7.77
2022-12-31T01:51:52.686Z,7.57
2022-12-31T01:54:24.196Z,7.90
2022-12-31T01:56:55.200Z,7.70
2022-12-31T01:59:27.019Z,7.20
2022-12-31T02:01:57.358Z,7.63
2022-12-31T02:04:27.534Z,7.73
2022-12-31T02:06:59.136Z,8.23
2022-12-31T02:09:27.621Z,7.80
2022-12-31T02:11:55.886Z,8.27
2022-12-31T02:14:28.166Z,8.47
2022-12-31T02:17:08.865Z,7.27
2022-12-31T02:20:15.545Z,7.53
2022-12-31T02:23:17.142Z,7.80
2022-12-31T02:26:06.441Z,7.83
2022-12-31T02:28:57.365Z,7.90
2022-12-31T02:31:33.988Z,7.30
2022-12-31T02:34:07.776Z,7.77
2022-12-31T02:36:39.909Z,7.70
2022-12-31T02:39:10.535Z,7.73
2022-12-31T02:41:54.018Z,7.53
2022-12-31T02:44:24.942Z,7.67
2022-12-31T02:47:07.868Z,8.03
2022-12-31T02:49:45.009Z,7.40
2022-12-31T02:52:22.939Z,7.97
2022-12-31T02:55:00.190Z,8.77
2022-12-31T02:57:34.870Z,8.37
2022-12-31T03:00:24.738Z,9.57
2022-12-31T03:02:56.185Z,9.23
2022-12-31T03:05:28.326Z,9.80
2022-12-31T03:07:56.782Z,9.47
2022-12-31T03:10:25.088Z,9.83
2022-12-31T03:12:52.365Z,9.90
2022-12-31T03:15:24.533Z,10.13
2022-12-31T03:17:59.406Z,9.77
2022-12-31T03:20:49.091Z,9.33
2022-12-31T03:23:22.397Z,9.17
2022-12-31T03:25:49.897Z,9.17
2022-12-31T03:28:21.161Z,9.40
2022-12-31T03:30:52.229Z,9.23
2022-12-31T03:33:23.097Z,10.00
2022-12-31T03:35:51.888Z,9.37
2022-12-31T03:38:21.020Z,9.17
2022-12-31T03:40:54.464Z,10.40
2022-12-31T03:43:22.874Z,9.33
2022-12-31T03:45:52.624Z,9.57
2022-12-31T03:48:24.194Z,10.37
2022-12-31T03:50:52.912Z,9.03
2022-12-31T03:53:21.359Z,9.83
2022-12-31T03:55:53.067Z,9.20
2022-12-31T03:58:21.513Z,9.53
2022-12-31T04:00:50.163Z,10.00
2022-12-31T04:03:18.684Z,9.00
2022-12-31T04:05:54.610Z,9.70
2022-12-31T04:08:22.986Z,9.33
2022-12-31T04:10:51.399Z,10.30
2022-12-31T04:13:19.752Z,9.17
2022-12-31T04:15:51.561Z,8.73
2022-12-31T04:18:19.873Z,9.07
2022-12-31T04:20:49.581Z,9.43
2022-12-31T04:23:18.693Z,9.53
2022-12-31T04:25:46.991Z,9.60
2022-12-31T04:28:15.284Z,8.67
2022-12-31T04:30:43.533Z,9.53
2022-12-31T04:33:11.996Z,8.97
2022-12-31T04:35:40.327Z,8.93
2022-12-31T04:38:09.935Z,8.87
2022-12-31T04:40:58.728Z,9.27
2022-12-31T04:43:27.038Z,8.40
2022-12-31T04:45:55.290Z,8.73
2022-12-31T04:48:23.592Z,8.63
2022-12-31T04:50:51.848Z,8.93
2022-12-31T04:53:21.446Z,9.17
2022-12-31T04:55:49.669Z,7.87
2022-12-31T04:58:18.025Z,9.10
2022-12-31T05:00:49.788Z,8.67
2022-12-31T05:03:18.682Z,8.13
2022-12-31T05:05:46.992Z,8.77
2022-12-31T05:08:15.786Z,7.80
2022-12-31T05:10:47.535Z,8.13
2022-12-31T05:13:16.467Z,7.70
2022-12-31T05:15:44.823Z,7.57
2022-12-31T05:18:13.068Z,7.93
2022-12-31T05:20:41.573Z,7.87
2022-12-31T05:23:10.319Z,7.80
2022-12-31T05:25:38.978Z,9.10
2022-12-31T05:28:08.750Z,8.23
2022-12-31T05:30:37.152Z,8.67
2022-12-31T05:33:05.758Z,9.37
2022-12-31T05:35:34.098Z,9.50
2022-12-31T05:38:03.136Z,9.57
2022-12-31T05:40:31.368Z,8.97
2022-12-31T05:42:59.644Z,7.90
2022-12-31T05:45:31.132Z,7.93
2022-12-31T05:47:59.922Z,7.83
2022-12-31T05:50:28.242Z,8.40
2022-12-31T05:52:56.534Z,7.73
2022-12-31T05:55:24.969Z,8.30
2022-12-31T05:57:53.179Z,9.23
2022-12-31T06:00:21.556Z,8.53
2022-12-31T06:02:51.187Z,8.47
2022-12-31T06:05:25.742Z,8.60
2022-12-31T06:07:54.475Z,7.87
2022-12-31T06:10:22.730Z,9.53
2022-12-31T06:12:50.975Z,9.20
2022-12-31T06:15:19.459Z,8.30
2022-12-31T06:17:47.700Z,8.67
2022-12-31T06:20:17.505Z,7.77
2022-12-31T06:22:45.749Z,8.50
2022-12-31T06:25:14.357Z,9.20
2022-12-31T06:27:42.613Z,8.70
2022-12-31T06:30:13.570Z,8.23
2022-12-31T06:32:42.345Z,7.63
2022-12-31T06:35:11.224Z,8.30
2022-12-31T06:37:40.803Z,8.77
2022-12-31T06:40:10.960Z,7.57
2022-12-31T06:42:39.222Z,8.83
2022-12-31T06:45:09.192Z,8.83
2022-12-31T06:47:37.394Z,7.40
2022-12-31T06:50:07.230Z,8.23
2022-12-31T06:52:35.543Z,7.93
2022-12-31T06:55:07.104Z,8.33
2022-12-31T06:57:36.178Z,8.67
2022-12-31T07:00:06.820Z,8.87
2022-12-31T07:03:00.500Z,9.17
2022-12-31T07:05:38.950Z,9.00
2022-12-31T07:08:23.153Z,8.53
2022-12-31T07:11:01.093Z,7.60
2022-12-31T07:13:57.444Z,8.93
2022-12-31T07:16:40.699Z,8.40
2022-12-31T07:19:24.145Z,8.27
2022-12-31T07:21:54.574Z,8.87
2022-12-31T07:24:23.900Z,9.10
2022-12-31T07:27:12.622Z,8.63
2022-12-31T07:30:00.239Z,8.67
2022-12-31T07:32:59.403Z,9.17
2022-12-31T07:35:39.083Z,9.83
2022-12-31T07:38:17.583Z,8.70
2022-12-31T07:40:59.805Z,10.40
2022-12-31T07:43:37.494Z,12.77
2022-12-31T07:46:14.837Z,13.30
2022-12-31T07:48:43.608Z,12.17
2022-12-31T07:51:13.043Z,11.80
2022-12-31T07:53:41.330Z,15.00
2022-12-31T07:56:11.133Z,14.10
2022-12-31T07:59:01.267Z,13.50
2022-12-31T08:01:42.079Z,13.50
2022-12-31T08:04:24.633Z,13.97
2022-12-31T08:07:04.452Z,13.50
2022-12-31T08:09:44.151Z,12.27
2022-12-31T08:12:12.826Z,12.47
2022-12-31T08:14:47.486Z,13.70
2022-12-31T08:17:19.367Z,13.90
2022-12-31T08:19:48.646Z,14.90
2022-12-31T08:22:38.948Z,15.00
2022-12-31T08:25:19.710Z,15.80
2022-12-31T08:28:01.739Z,14.20
2022-12-31T08:30:46.901Z,13.70
2022-12-31T08:33:20.704Z,13.93
2022-12-31T08:36:05.083Z,13.77
2022-12-31T08:38:41.797Z,15.03
2022-12-31T08:41:21.327Z,15.20
2022-12-31T08:44:03.006Z,16.27
2022-12-31T08:46:40.677Z,15.30
2022-12-31T08:49:11.366Z,15.47
2022-12-31T08:51:40.283Z,16.23
2022-12-31T08:54:11.597Z,16.17
2022-12-31T08:56:50.620Z,14.97
2022-12-31T08:59:33.104Z,13.13
2022-12-31T09:02:24.625Z,12.47
2022-12-31T09:05:03.247Z,12.13
2022-12-31T09:07:39.282Z,12.77
2022-12-31T09:10:20.426Z,9.43
2022-12-31T09:13:01.421Z,11.27
2022-12-31T09:15:37.274Z,11.53
2022-12-31T09:18:09.648Z,10.90
2022-12-31T09:20:43.265Z,12.60
2022-12-31T09:23:13.687Z,13.87
2022-12-31T09:25:47.228Z,12.50
2022-12-31T09:28:24.491Z,13.07
2022-12-31T09:31:01.435Z,15.40
2022-12-31T09:33:42.862Z,16.17
2022-12-31T09:36:20.871Z,14.63
2022-12-31T09:38:55.610Z,13.67
2022-12-31T09:41:46.712Z,13.30
2022-12-31T09:44:59.228Z,13.13
2022-12-31T09:48:19.399Z,16.13
2022-12-31T09:51:08.416Z,16.83
2022-12-31T09:54:11.958Z,18.73
2022-12-31T09:56:47.189Z,15.30
2022-12-31T09:59:25.237Z,16.70
2022-12-31T10:02:01.979Z,16.03
2022-12-31T10:04:57.510Z,16.03
2022-12-31T10:07:52.793Z,16.43
2022-12-31T10:10:29.290Z,13.20
2022-12-31T10:13:20.145Z,14.30
2022-12-31T10:16:04.751Z,11.80
2022-12-31T10:19:37.408Z,11.37
2022-12-31T10:22:28.133Z,11.80
2022-12-31T10:25:20.750Z,11.20
2022-12-31T10:28:16.176Z,11.67
2022-12-31T10:30:57.740Z,13.60
2022-12-31T10:33:43.726Z,14.00
2022-12-31T10:36:21.145Z,11.40
2022-12-31T10:39:10.473Z,11.03
2022-12-31T10:42:24.327Z,11.10
2022-12-31T10:45:28.738Z,11.30
2022-12-31T10:49:00.531Z,13.70
2022-12-31T10:52:28.822Z,12.17
2022-12-31T10:55:42.612Z,11.43
2022-12-31T10:58:51.976Z,10.93
2022-12-31T11:01:26.959Z,12.53
2022-12-31T11:04:44.583Z,11.03
2022-12-31T11:08:02.148Z,10.60
2022-12-31T11:11:19.050Z,10.37
2022-12-31T11:14:42.363Z,10.10
2022-12-31T11:17:38.181Z,10.23
2022-12-31T11:20:32.315Z,10.17
2022-12-31T11:23:15.392Z,10.30
2022-12-31T11:25:58.613Z,11.13
2022-12-31T11:29:03.998Z,10.63
2022-12-31T11:31:52.321Z,9.63
2022-12-31T11:34:53.379Z,9.17
2022-12-31T11:37:38.531Z,8.37
2022-12-31T11:40:28.026Z,9.30
2022-12-31T11:43:00.763Z,8.30
2022-12-31T11:45:50.931Z,9.20
2022-12-31T11:48:30.661Z,8.93
2022-12-31T11:51:31.520Z,10.30
2022-12-31T12:56:22.720Z,12.37
2022-12-31T12:59:13.838Z,13.37
2022-12-31T13:01:49.863Z,16.50
2022-12-31T13:04:47.827Z,15.27
2022-12-31T13:07:37.024Z,14.50
2022-12-31T13:10:23.329Z,13.03
2022-12-31T13:13:23.314Z,12.87
2022-12-31T13:16:00.368Z,12.83
2022-12-31T13:18:42.866Z,12.23
2022-12-31T13:21:30.051Z,11.87
2022-12-31T13:24:05.281Z,10.97
2022-12-31T13:26:40.950Z,11.67
2022-12-31T13:29:18.860Z,11.67
2022-12-31T13:31:49.039Z,11.70
2022-12-31T13:34:22.533Z,13.23
2022-12-31T13:36:53.079Z,12.77
2022-12-31T13:39:27.041Z,13.73
2022-12-31T13:42:02.361Z,12.80
2022-12-31T13:44:39.922Z,13.57
2022-12-31T13:47:14.464Z,14.43
2022-12-31T13:49:48.632Z,12.30
2022-12-31T13:52:30.428Z,12.30
2022-12-31T13:55:09.368Z,12.50
2022-12-31T13:57:44.053Z,9.53
2022-12-31T14:00:22.921Z,9.63
2022-12-31T14:03:03.187Z,9.80
2022-12-31T14:05:37.536Z,8.83
2022-12-31T14:08:07.748Z,8.70
2022-12-31T14:10:51.883Z,8.57
2022-12-31T14:13:45.260Z,8.70
2022-12-31T14:16:23.789Z,9.17
2022-12-31T14:19:06.596Z,8.63
2022-12-31T14:21:44.312Z,9.10
2022-12-31T14:24:17.530Z,9.40
2022-12-31T14:26:50.491Z,8.93
2022-12-31T14:29:33.179Z,8.67
2022-12-31T14:32:43.070Z,7.13
2022-12-31T14:35:33.754Z,8.60
2022-12-31T14:38:15.731Z,8.90
2022-12-31T14:40:57.239Z,8.13
2022-12-31T14:43:38.262Z,8.53
2022-12-31T14:46:15.710Z,9.20
2022-12-31T14:48:56.719Z,9.27
2022-12-31T14:51:29.706Z,9.43
2022-12-31T14:53:59.625Z,8.53
2022-12-31T14:56:43.794Z,7.87
2022-12-31T14:59:27.538Z,13.70
2022-12-31T15:01:58.342Z,20.83
2022-12-31T15:04:35.584Z,35.00
2022-12-31T15:07:14.623Z,92.20
2022-12-31T15:10:08.445Z,34.00
2022-12-31T15:13:04.318Z,41.40
2022-12-31T15:16:22.415Z,23.67
2022-12-31T15:19:51.814Z,11.40
2022-12-31T15:22:39.340Z,8.20
2022-12-31T15:25:39.966Z,6.57
2022-12-31T15:28:28.947Z,6.27
2022-12-31T15:31:10.742Z,5.77
2022-12-31T15:33:54.324Z,7.57
2022-12-31T15:36:26.177Z,8.80
2022-12-31T15:39:27.013Z,12.37
2022-12-31T15:44:55.427Z,14.60
2022-12-31T15:47:30.147Z,16.03
2022-12-31T15:50:03.231Z,13.87
2022-12-31T15:52:41.594Z,14.50
2022-12-31T15:55:24.243Z,9.50
2022-12-31T15:57:53.361Z,9.67
2022-12-31T16:00:25.008Z,8.70
2022-12-31T16:02:55.944Z,9.50
2022-12-31T16:05:26.686Z,15.90
2022-12-31T16:07:56.238Z,23.70
2022-12-31T16:10:30.814Z,16.07
2022-12-31T16:13:01.040Z,16.23
2022-12-31T16:15:32.955Z,20.70
2022-12-31T16:18:04.478Z,22.00
2022-12-31T16:20:35.634Z,20.00
2022-12-31T16:23:20.984Z,14.30
2022-12-31T16:25:52.708Z,11.63
2022-12-31T16:28:24.960Z,13.23
2022-12-31T16:31:02.763Z,29.73
2022-12-31T16:33:32.621Z,22.13
2022-12-31T16:36:02.731Z,17.43
2022-12-31T16:38:35.956Z,16.90
2022-12-31T16:41:19.847Z,19.40
2022-12-31T16:43:49.806Z,26.03
2022-12-31T16:46:26.292Z,24.23
2022-12-31T16:48:57.421Z,23.20
2022-12-31T16:51:30.394Z,25.00
2022-12-31T16:53:59.872Z,23.70
2022-12-31T16:56:35.266Z,21.37
2022-12-31T16:59:08.313Z,20.83
2022-12-31T17:01:38.687Z,22.10
2022-12-31T17:04:12.826Z,22.60
2022-12-31T17:06:41.221Z,21.90
2022-12-31T17:09:15.118Z,21.00
2022-12-31T17:11:53.986Z,18.73
2022-12-31T17:14:25.239Z,20.53
2022-12-31T17:17:03.021Z,22.17
2022-12-31T17:19:42.119Z,29.17
2022-12-31T17:22:17.060Z,30.40
2022-12-31T17:24:48.560Z,30.17
2022-12-31T17:27:18.821Z,26.63
2022-12-31T17:29:48.324Z,23.53
2022-12-31T17:32:32.264Z,22.00
2022-12-31T17:35:00.597Z,23.77
2022-12-31T17:37:31.288Z,24.30
2022-12-31T17:40:24.980Z,26.23
2022-12-31T17:42:51.895Z,25.53
2022-12-31T17:45:22.914Z,21.07
2022-12-31T17:47:53.958Z,21.07
2022-12-31T17:50:25.935Z,22.47
2022-12-31T17:52:57.721Z,21.70
2022-12-31T17:55:26.106Z,23.73
2022-12-31T17:57:58.388Z,20.80
2022-12-31T18:00:28.284Z,20.90
2022-12-31T18:02:56.725Z,23.60
2022-12-31T18:05:25.957Z,26.87
2022-12-31T18:07:54.531Z,24.23
2022-12-31T18:10:25.690Z,21.77
2022-12-31T18:12:55.699Z,20.93
2022-12-31T18:15:25.925Z,23.17
2022-12-31T18:17:54.274Z,24.60
2022-12-31T18:20:22.867Z,28.97
2022-12-31T18:22:51.882Z,27.50
2022-12-31T18:25:23.079Z,30.27
2022-12-31T18:27:52.955Z,29.73
2022-12-31T18:30:23.514Z,65.30
2022-12-31T18:32:52.119Z,49.70
2022-12-31T18:38:15.016Z,33.37
2022-12-31T18:40:46.805Z,37.10
2022-12-31T18:43:17.774Z,40.77
2022-12-31T18:45:48.697Z,86.70
2022-12-31T18:48:18.052Z,80.20
2022-12-31T18:50:47.566Z,58.00
2022-12-31T18:53:18.721Z,38.73
2022-12-31T18:55:50.719Z,35.23
2022-12-31T18:58:19.349Z,36.07
2022-12-31T19:00:50.310Z,46.70
2022-12-31T19:03:21.525Z,42.17
2022-12-31T19:05:51.924Z,47.20
2022-12-31T19:08:21.622Z,258.20
2022-12-31T19:10:51.950Z,104.60
2022-12-31T19:13:22.974Z,188.10
2022-12-31T19:15:55.617Z,167.43
2022-12-31T19:18:24.028Z,96.17
2022-12-31T19:20:53.344Z,153.70
2022-12-31T19:23:22.716Z,175.60
2022-12-31T19:25:51.717Z,73.30
2022-12-31T19:28:22.743Z,94.47
2022-12-31T19:30:53.051Z,109.90
2022-12-31T19:33:21.600Z,102.80
2022-12-31T19:35:50.423Z,157.77
2022-12-31T19:38:21.335Z,123.40
2022-12-31T19:40:50.736Z,66.03
2022-12-31T19:43:21.734Z,106.47
2022-12-31T19:45:52.827Z,75.63
2022-12-31T19:48:32.038Z,54.33
2022-12-31T19:51:01.786Z,36.10
2022-12-31T19:53:30.195Z,31.27
2022-12-31T19:55:58.546Z,33.70
2022-12-31T19:58:28.320Z,40.57
2022-12-31T20:01:03.196Z,49.17
2022-12-31T20:03:35.195Z,55.67
2022-12-31T20:06:06.800Z,42.77
2022-12-31T20:08:35.252Z,40.53
2022-12-31T20:11:10.160Z,34.80
2022-12-31T20:13:39.744Z,34.57
2022-12-31T20:16:12.530Z,32.53
2022-12-31T20:18:42.504Z,29.37
2022-12-31T20:21:13.272Z,27.53
2022-12-31T20:23:41.914Z,26.83
2022-12-31T20:26:10.848Z,21.03
2022-12-31T20:28:39.357Z,25.10
2022-12-31T20:31:11.414Z,29.33
2022-12-31T20:33:40.281Z,26.70
2022-12-31T20:36:11.659Z,27.90
2022-12-31T20:38:40.224Z,23.60
2022-12-31T20:41:11.744Z,23.30
2022-12-31T20:43:40.648Z,43.00
2022-12-31T20:46:15.736Z,36.20
2022-12-31T20:48:45.041Z,33.23
2022-12-31T20:51:13.540Z,37.07
2022-12-31T20:53:47.010Z,49.27
2022-12-31T20:56:15.422Z,44.70
2022-12-31T20:58:43.905Z,27.87
2022-12-31T21:01:16.251Z,16.03
2022-12-31T21:04:04.694Z,20.80
2022-12-31T21:06:35.286Z,23.67
2022-12-31T21:09:06.689Z,23.90
2022-12-31T21:11:53.532Z,22.33
2022-12-31T21:14:22.221Z,14.17
2022-12-31T21:16:52.068Z,14.90
2022-12-31T21:19:20.388Z,11.87
2022-12-31T21:21:49.871Z,12.90
2022-12-31T21:24:23.494Z,14.43
2022-12-31T21:26:52.197Z,13.23
2022-12-31T21:29:20.552Z,11.07
2022-12-31T21:31:48.999Z,10.93
2022-12-31T21:34:18.929Z,11.47
2022-12-31T21:36:47.374Z,21.63
2022-12-31T21:39:15.922Z,19.07
2022-12-31T21:41:53.349Z,21.07
2022-12-31T21:44:23.991Z,20.33
2022-12-31T21:47:35.264Z,18.13
2022-12-31T21:50:05.906Z,18.90
2022-12-31T21:52:35.282Z,36.03
2022-12-31T21:55:24.088Z,28.50
2022-12-31T22:00:59.818Z,50.60
2022-12-31T22:03:28.663Z,43.63
2022-12-31T22:06:02.981Z,41.47
2022-12-31T22:08:32.790Z,31.77
2022-12-31T22:11:01.238Z,29.80
2022-12-31T22:13:29.655Z,31.63
2022-12-31T22:16:04.629Z,26.67
2022-12-31T22:18:35.777Z,26.10
2022-12-31T22:21:15.732Z,32.77
2022-12-31T22:23:48.218Z,32.07
2022-12-31T22:26:19.699Z,31.43
2022-12-31T22:28:48.748Z,26.30
2022-12-31T22:31:19.585Z,22.30
2022-12-31T22:33:48.356Z,20.53
2022-12-31T22:36:20.347Z,19.77
2022-12-31T22:38:50.884Z,20.60
2022-12-31T22:41:21.657Z,119.30
2022-12-31T22:43:58.503Z,64.33
2022-12-31T22:46:30.986Z,39.30
2022-12-31T22:49:00.901Z,43.07
2022-12-31T22:51:56.708Z,37.27
2022-12-31T22:54:20.251Z,43.50
2022-12-31T22:56:48.755Z,45.13
2022-12-31T22:59:17.093Z,48.13
2022-12-31T23:01:45.743Z,66.13
2022-12-31T23:04:14.347Z,61.00
2022-12-31T23:06:46.665Z,76.57
2022-12-31T23:09:34.614Z,81.27
2022-12-31T23:12:03.506Z,71.43
2022-12-31T23:14:49.379Z,91.77
2022-12-31T23:17:38.649Z,113.57
2022-12-31T23:20:28.739Z,147.30
2022-12-31T23:23:10.729Z,167.90
2022-12-31T23:25:42.335Z,270.10
2022-12-31T23:28:15.041Z,306.67
2022-12-31T23:30:44.183Z,164.63
2022-12-31T23:33:16.998Z,207.77
2022-12-31T23:35:45.374Z,155.93
2022-12-31T23:38:16.867Z,181.00
2022-12-31T23:40:45.443Z,153.10
2022-12-31T23:43:21.835Z,112.40
2022-12-31T23:45:51.263Z,126.53
2022-12-31T23:48:19.604Z,125.77
2022-12-31T23:50:53.833Z,129.83
2022-12-31T23:53:24.241Z,155.73
2022-12-31T23:55:52.776Z,181.23
2022-12-31T23:58:21.377Z,187.90
